Latest Coastal Weather Observations for Yarram Airport

IDV60701

Issued at 1:11 am EST Saturday 2 July 2016 (issued every 10 minutes, with the page automatically refreshed every 10 minutes)

About coastal observations | Map of coastal stations | Coastal observations for VIC | Marine services | Other Formats
Station Details ID: 085151 Name: YARRAM AIRPORT Lat: -38.56 Lon: 146.75 Height: 17.9 m
Data from the previous 72 hours. | See also: Recent months at Yarram Airport
Date/Time
EST
Temp
°C
Wind Pressure Rain since
9am
mm
Weather Cloud Vis
km
Sea
Height
m
Swell
Dir  Spd
kts
Gust
kts
hPa Trend Height
m
Period
s
Dir
02/01:00am 9.9 WNW 9 12 1020.5 - 0.6 - - - - - - -
02/12:30am 10.1 NW 9 13 1020.5 - 0.6 - - - - - - -
02/12:00am 9.9 NW 7 11 1020.8 - 0.6 - - - - - - -
 
Date/Time
EST
Temp
°C
Wind Pressure Rain since
9am
mm
Weather Cloud Vis
km
Sea
Height
m
Swell
Dir  Spd
kts
Gust
kts
hPa Trend Height
m
Period
s
Dir
01/11:30pm 9.6 WNW 8 11 1020.8 - 0.6 - - - - - - -
01/11:00pm 9.3 WNW 7 10 1021.1 - 0.6 - - - - - - -
01/10:30pm 11.1 WNW 10 14 1020.8 - 0.6 - - - - - - -
01/10:00pm 10.6 WNW 9 13 1021.1 - 0.6 - - - - - - -
01/09:30pm 10.1 WNW 8 10 1021.1 - 0.6 - - - - - - -
01/09:00pm 10.7 WNW 12 16 1021.0 - 0.6 - - - - - - -
01/08:30pm 10.5 WNW 9 13 1021.1 - 0.6 - - - - - - -
01/08:00pm 10.1 WNW 11 13 1020.8 - 0.6 - - - - - - -
01/07:30pm 10.0 WNW 10 15 1020.8 - 0.6 - - - - - - -
01/07:00pm 9.4 WNW 8 11 1020.7 - 0.6 - - - - - - -
01/06:30pm 9.5 NW 10 14 1020.4 - 0.6 - - - - - - -
01/06:00pm 10.3 WNW 13 18 1020.2 - 0.6 - - - - - - -
01/05:30pm 10.2 WNW 9 13 1020.0 - 0.6 - - - - - - -
01/05:00pm 9.7 WNW 9 12 1019.6 - 0.6 - - - - - - -
01/04:30pm 10.5 W 15 21 1019.3 - 0.6 - - - - - - -
01/04:00pm 10.5 WSW 12 15 1019.0 - 0.6 - - - - - - -
01/03:30pm 11.7 WSW 13 18 1018.7 - 0.6 - - - - - - -
01/03:00pm 11.9 W 12 16 1018.4 - 0.6 - - - - - - -
01/02:30pm 12.0 WSW 14 21 1018.3 - 0.6 - - - - - - -
01/02:00pm 10.5 WSW 21 31 1018.3 - 0.6 - - - - - - -
01/01:47pm 12.2 WSW 16 27 1017.9 - 0.6 - - - - - - -
01/01:30pm 12.2 WSW 15 21 1017.8 - 0.6 - - - - - - -
01/01:00pm 12.3 WSW 15 22 1017.7 - 0.6 - - - - - - -
01/12:30pm 11.8 WSW 13 17 1017.6 - 0.6 - - - - - - -
01/12:00pm 11.3 WSW 17 23 1017.7 - 0.4 Recent precip. - - - - - -
01/11:30am 12.1 WSW 15 22 1017.5 - 0.4 - - - - - - -
01/11:00am 12.3 W 14 21 1017.3 - 0.2 - - - - - - -
01/10:30am 12.2 W 11 14 1017.3 - 0.2 - - - - - - -
01/10:00am 11.7 W 10 13 1016.8 - 0.2 - - - - - - -
01/09:30am 10.4 W 9 12 1016.5 - 0.2 - - - - - - -
01/09:00am 9.7 W 12 14 1016.1 - 0.4 Recent precip. - - - - - -
01/08:30am 9.7 WNW 10 12 1015.7 - 0.2 - - - - - - -
01/08:00am 8.3 WNW 9 11 1015.1 - 0.2 - - - - - - -
01/07:30am 8.2 W 10 14 1014.7 - 0.2 - - - - - - -
01/07:00am 8.7 W 10 14 1014.1 - 0.2 - - - - - - -
01/06:30am 8.5 WNW 11 13 1013.4 - 0.2 - - - - - - -
01/06:00am 8.5 WNW 10 15 1013.1 - 0.2 - - - - - - -
01/05:30am 6.9 WNW 6 7 1012.7 - 0.2 - - - - - - -
01/05:00am 6.2 WNW 6 8 1012.1 - 0.2 - - - - - - -
01/04:30am 7.6 WNW 10 14 1011.4 - 0.2 - - - - - - -
01/04:00am 8.1 WNW 10 13 1011.3 - 0.2 - - - - - - -
01/03:30am 8.1 WNW 10 14 1010.7 - 0.2 - - - - - - -
01/03:00am 7.3 WNW 8 12 1010.6 - 0.2 - - - - - - -
01/02:30am 7.2 WNW 7 8 1010.4 - 0.2 - - - - - - -
01/02:00am 6.8 W 5 7 1010.0 - 0.2 - - - - - - -
01/01:30am 7.2 WNW 8 11 1009.5 - 0.2 - - - - - - -
01/01:00am 7.1 W 8 11 1009.3 - 0.2 - - - - - - -
01/12:30am 7.2 WNW 9 13 1009.0 - 0.2 - - - - - - -
01/12:00am 7.3 WNW 9 14 1008.9 - 0.2 - - - - - - -
 
Date/Time
EST
Temp
°C
Wind Pressure Rain since
9am
mm
Weather Cloud Vis
km
Sea
Height
m
Swell
Dir  Spd
kts
Gust
kts
hPa Trend Height
m
Period
s
Dir
30/11:30pm 7.9 WNW 9 14 1008.5 - 0.2 - - - - - - -
30/11:00pm 8.5 NW 10 13 1008.2 - 0.2 - - - - - - -
30/10:30pm 8.4 NW 10 14 1008.1 - 0.2 - - - - - - -
30/10:00pm 8.2 NNW 8 13 1008.0 - 0.2 - - - - - - -
30/09:30pm 7.9 NNW 5 8 1008.0 - 0.2 - - - - - - -
30/09:00pm 8.3 NNW 5 7 1007.6 - 0.2 - - - - - - -
30/08:30pm 8.6 NNW 8 13 1007.9 - 0.2 - - - - - - -
30/08:00pm 8.9 NW 11 16 1008.1 - 0.2 - - - - - - -
30/07:30pm 9.0 WNW 7 11 1007.9 - 0.2 - - - - - - -
30/07:00pm 9.0 WNW 8 10 1007.6 - 0.2 - - - - - - -
30/06:30pm 9.3 NNW 6 8 1007.1 - 0.2 - - - - - - -
30/06:00pm 9.4 NNE 7 8 1006.7 - 0.0 - - - - - - -
30/05:30pm 10.0 NNW 3 5 1006.1 - 0.0 - - - - - - -
30/05:00pm 10.1 NNW 4 6 1005.8 - 0.0 - - - - - - -
30/04:30pm 11.6 N 9 11 1005.7 - 0.0 - - - - - - -
30/04:00pm 12.3 N 10 13 1005.4 - 0.0 - - - - - - -
30/03:30pm 13.4 N 14 19 1005.3 - 0.0 - - - - - - -
30/03:00pm 13.8 N 14 18 1005.4 - 0.0 - - - - - - -
30/02:30pm 13.9 NNW 13 18 1005.7 - 0.0 - - - - - - -
30/02:00pm 13.7 NNW 16 21 1005.9 - 0.0 - - - - - - -
30/01:30pm 14.4 N 12 16 1006.5 - 0.0 - - - - - - -
30/01:00pm 14.2 N 10 14 1007.2 - 0.0 - - - - - - -
30/12:30pm 13.0 NNE 8 15 1007.9 - 0.0 - - - - - - -
30/12:00pm 12.4 N 8 11 1008.7 - 0.0 - - - - - - -
30/11:30am 12.1 ENE 6 9 1009.5 - 0.0 - - - - - - -
30/11:00am 11.2 ENE 8 11 1010.1 - 0.0 - - - - - - -
30/10:30am 10.6 NE 8 11 1010.6 - 0.0 - - - - - - -
30/10:00am 10.5 ENE 6 9 1011.3 - 0.0 - - - - - - -
30/09:30am 8.1 E 5 6 1011.7 - 0.0 - - - - - - -
30/09:00am 7.7 ENE 7 8 1012.1 - 0.0 - - - - - - -
30/08:30am 7.0 ENE 7 8 1012.5 - 0.0 - - - - - - -
30/08:00am 6.5 ENE 7 8 1012.7 - 0.0 - - - - - - -
30/07:30am 5.4 ENE 5 7 1013.0 - 0.0 - - - - - - -
30/07:00am 5.4 NE 5 8 1013.2 - 0.0 - - - - - - -
30/06:30am 4.3 NNE 6 7 1013.4 - 0.0 - - - - - - -
30/06:00am 4.6 NNE 6 10 1013.7 - 0.0 - - - - - - -
30/05:30am 4.5 NNE 3 4 1014.2 - 0.0 - - - - - - -
30/05:00am 4.6 NNE 5 6 1014.6 - 0.0 - - - - - - -
30/04:30am 4.7 NNE 6 8 1015.1 - 0.0 - - - - - - -
30/04:00am 4.3 NNE 5 7 1015.5 - 0.0 - - - - - - -
30/03:30am 3.9 NNE 5 8 1016.0 - 0.0 - - - - - - -
30/03:00am 3.4 NNW 6 6 1016.4 - 0.0 - - - - - - -
30/02:30am 2.1 NNW 3 6 1016.6 - 0.0 - - - - - - -
30/02:00am 1.9 NNW 4 5 1017.1 - 0.0 - - - - - - -
30/01:30am 1.3 NW 5 5 1017.5 - 0.0 - - - - - - -
30/01:00am 2.2 N 3 4 1017.8 - 0.0 - - - - - - -
30/12:30am 2.8 W 5 5 1018.3 - 0.0 - - - - - - -
30/12:00am 1.7 WNW 5 7 1018.5 - 0.0 - - - - - - -
 
Date/Time
EST
Temp
°C
Wind Pressure Rain since
9am
mm
Weather Cloud Vis
km
Sea
Height
m
Swell
Dir  Spd
kts
Gust
kts
hPa Trend Height
m
Period
s
Dir
29/11:30pm 3.0 NE 5 7 1018.6 - 0.0 - - - - - - -
29/11:00pm 4.3 E 5 6 1018.7 - 0.0 - - - - - - -
29/10:30pm 5.9 E 5 7 1018.9 - 0.0 - - - - - - -
29/10:00pm 5.9 ESE 4 6 1019.4 - 0.0 - - - - - - -
29/09:30pm 7.4 ENE 5 6 1019.7 - 0.0 - - - - - - -
29/09:00pm 7.7 ENE 5 8 1020.0 - 0.0 - - - - - - -
29/08:30pm 9.8 NE 5 6 1020.5 - 0.0 - - - - - - -
29/08:00pm 8.7 NNE 4 6 1020.9 - 0.0 - - - - - - -
29/07:30pm 7.5 NNE 6 7 1021.1 - 0.0 - - - - - - -
29/07:00pm 6.1 NNE 5 6 1021.4 - 0.0 - - - - - - -
29/06:30pm 6.7 NE 5 7 1021.6 - 0.0 - - - - - - -
29/06:00pm 7.8 NE 6 7 1021.8 - 0.0 - - - - - - -
29/05:30pm 7.4 NNE 4 5 1022.1 - 0.0 - - - - - - -
29/05:00pm 9.4 N 5 5 1022.3 - 0.0 - - - - - - -
29/04:30pm 11.6 N 6 7 1022.5 - 0.0 - - - - - - -
29/04:00pm 11.5 NNW 3 5 1022.7 - 0.0 - - - - - - -
29/03:30pm 12.9 WNW 6 8 1022.7 - 0.0 - - - - - - -
29/03:00pm 14.5 WNW 12 17 1022.7 - 0.0 - - - - - - -
29/02:30pm 15.2 WNW 11 15 1022.8 - 0.0 - - - - - - -
29/02:00pm 15.0 WNW 13 19 1022.9 - 0.0 - - - - - - -
29/01:30pm 15.2 WNW 14 20 1023.3 - 0.0 - - - - - - -
29/01:00pm 15.2 WNW 12 17 1023.8 - 0.0 - - - - - - -
29/12:30pm 15.0 WNW 15 19 1024.3 - 0.0 - - - - - - -
29/12:00pm 14.9 WNW 15 21 1024.8 - 0.0 - - - - - - -
29/11:30am 15.0 NW 11 15 1025.3 - 0.0 - - - - - - -
29/11:00am 14.9 WNW 12 17 1025.8 - 0.0 - - - - - - -
29/10:30am 13.8 WNW 11 16 1026.0 - 0.0 - - - - - - -
29/10:00am 13.1 WNW 9 11 1026.1 - 0.0 - - - - - - -
29/09:30am 12.3 NW 9 13 1026.0 - 0.0 - - - - - - -
29/09:00am 11.6 NW 7 10 1026.0 - 0.0 - - - - - - -
29/08:30am 10.8 NW 8 11 1025.8 - 0.0 - - - - - - -
29/08:00am 8.7 NW 6 8 1025.5 - 0.0 - - - - - - -
29/07:30am 9.0 WNW 7 8 1025.2 - 0.0 - - - - - - -
29/07:00am 9.1 NNW 8 9 1024.9 - 0.0 - - - - - - -
29/06:30am 9.0 NW 7 8 1024.9 - 0.0 - - - - - - -
29/06:00am 8.6 WNW 7 8 1024.5 - 0.0 - - - - - - -
29/05:30am 9.6 NNW 7 8 1024.3 - 0.0 - - - - - - -
29/05:00am 9.7 NNW 6 8 1024.1 - 0.0 - - - - - - -
29/04:30am 8.9 NW 7 8 1024.1 - 0.0 - - - - - - -
29/04:00am 10.1 NW 8 10 1024.1 - 0.0 - - - - - - -
29/03:30am 9.7 NW 6 7 1024.3 - 0.0 - - - - - - -
29/03:00am 9.9 NW 7 9 1024.3 - 0.0 - - - - - - -
29/02:30am 9.9 NW 8 10 1024.2 - 0.0 - - - - - - -
29/02:00am 10.9 NW 9 11 1024.2 - 0.0 - - - - - - -
29/01:30am 10.8 NW 10 12 1024.2 - 0.0 - - - - - - -

Other Formats:

Comma delimited format used in spreadsheet applications
http://www.bom.gov.au/fwo/IDV60701/IDV60701.95890.axf

JavaScript Object Notation format (JSON) in row-major order
http://www.bom.gov.au/fwo/IDV60701/IDV60701.95890.json